Time;durP1;ratioP1;P1;durP2;ratioP2;P2;SDS_P1;SDS_P2;PMS_P1;PMS_P2;Temp;Humidity;BMP_temperature;BMP_pressure;BME280_temperature;BME280_humidity;BME280_pressure;Samples;Min_cycle;Max_cycle;Signal;HPM_P1;HPM_P2
2022/10/07 00:02:30;;;;;;;7.00;4.60;;;21.50;67.80;;;;;;215022;1302;22925;-49
2022/10/07 00:07:34;;;;;;;9.80;4.40;;;21.50;67.70;;;;;;215035;1288;22475;-49
2022/10/07 00:12:37;;;;;;;6.70;4.20;;;21.50;67.70;;;;;;215141;1278;23185;-49
2022/10/07 00:17:42;;;;;;;7.20;4.10;;;21.50;67.80;;;;;;215109;1275;23060;-51
2022/10/07 00:22:46;;;;;;;8.20;4.60;;;21.50;67.70;;;;;;215114;1298;25350;-51
2022/10/07 00:27:49;;;;;;;7.60;4.50;;;21.40;67.70;;;;;;215158;1281;22461;-51
2022/10/07 00:32:53;;;;;;;8.90;4.70;;;21.50;67.70;;;;;;215065;1303;25376;-50
2022/10/07 00:37:58;;;;;;;7.30;4.30;;;21.50;67.80;;;;;;215043;1301;25288;-54
2022/10/07 00:43:18;;;;;;;9.90;5.20;;;21.50;67.80;;;;;;215135;1286;22477;-52
2022/10/07 00:48:25;;;;;;;6.60;4.40;;;21.50;67.30;;;;;;215097;1302;26445;-50
2022/10/07 00:53:31;;;;;;;8.20;4.60;;;21.50;67.70;;;;;;215161;1294;23844;-48
2022/10/07 00:58:36;;;;;;;9.10;4.00;;;21.50;67.70;;;;;;215104;1283;22454;-52
2022/10/07 01:03:43;;;;;;;11.20;5.50;;;21.50;67.70;;;;;;214968;1281;22543;-51
2022/10/07 01:08:51;;;;;;;18.00;6.40;;;21.50;68.10;;;;;;216259;1284;22476;-51
2022/10/07 01:14:06;;;;;;;8.50;4.20;;;21.50;68.10;;;;;;215096;1279;24295;-50
2022/10/07 01:19:48;;;;;;;6.80;4.10;;;21.50;67.60;;;;;;215064;1286;22476;-52
2022/10/07 01:25:11;;;;;;;9.40;4.50;;;21.50;68.10;;;;;;214856;1295;22451;-49
2022/10/07 01:30:15;;;;;;;8.10;4.30;;;21.50;67.70;;;;;;214931;1281;23127;-49
2022/10/07 01:35:24;;;;;;;8.00;4.90;;;21.50;67.70;;;;;;215193;1282;24304;-49
2022/10/07 01:40:33;;;;;;;7.70;4.50;;;21.50;67.60;;;;;;214983;1296;23897;-49
2022/10/07 01:45:39;;;;;;;8.80;3.80;;;21.50;67.70;;;;;;214822;1295;25399;-51
2022/10/07 01:50:43;;;;;;;9.30;4.30;;;21.50;67.80;;;;;;215102;1295;23891;-50
2022/10/07 01:55:53;;;;;;;6.90;4.00;;;21.50;68.20;;;;;;215038;1289;22514;-49
2022/10/07 02:01:30;;;;;;;13.70;4.90;;;21.50;68.10;;;;;;214973;1282;22469;-50
2022/10/07 02:07:06;;;;;;;8.10;4.40;;;21.50;68.00;;;;;;214886;1285;22451;-50
2022/10/07 02:12:32;;;;;;;6.40;4.00;;;21.50;68.00;;;;;;215028;1302;24801;-50
2022/10/07 02:17:41;;;;;;;8.10;4.30;;;21.50;67.70;;;;;;215046;1295;24240;-48
2022/10/07 02:22:47;;;;;;;8.30;4.10;;;21.50;67.60;;;;;;215136;1303;25356;-47
2022/10/07 02:27:53;;;;;;;7.10;4.10;;;21.40;67.70;;;;;;215080;1282;24247;-48
2022/10/07 02:33:02;;;;;;;7.20;4.50;;;21.50;67.70;;;;;;214991;1302;25523;-47
2022/10/07 02:38:11;;;;;;;12.30;5.10;;;21.50;67.60;;;;;;214774;1284;22468;-48
2022/10/07 02:43:28;;;;;;;6.30;3.70;;;21.50;67.60;;;;;;215062;1296;22514;-46
2022/10/07 02:48:44;;;;;;;7.20;3.90;;;21.50;67.70;;;;;;214894;1295;24229;-47
2022/10/07 02:53:51;;;;;;;11.50;4.30;;;21.50;67.60;;;;;;214824;1298;22470;-50
2022/10/07 02:58:56;;;;;;;7.40;4.20;;;21.50;67.60;;;;;;214837;1295;22463;-49
2022/10/07 03:04:00;;;;;;;5.80;3.70;;;21.50;67.60;;;;;;214732;1285;22462;-49
2022/10/07 03:09:04;;;;;;;10.00;5.00;;;21.50;68.20;;;;;;214814;1301;22622;-48
2022/10/07 03:14:08;;;;;;;8.00;4.10;;;21.50;68.00;;;;;;214867;1295;24316;-50
2022/10/07 03:19:12;;;;;;;7.30;4.40;;;21.50;67.60;;;;;;215023;1287;23022;-52
2022/10/07 03:24:27;;;;;;;7.40;4.00;;;21.50;67.60;;;;;;214958;1284;24426;-48
2022/10/07 03:29:31;;;;;;;9.60;4.20;;;21.50;67.60;;;;;;214954;1281;22846;-53
2022/10/07 03:34:36;;;;;;;7.80;4.40;;;21.50;67.60;;;;;;214917;1303;25445;-48
2022/10/07 03:39:40;;;;;;;6.80;3.80;;;21.50;67.60;;;;;;214965;1290;22479;-48
2022/10/07 03:44:45;;;;;;;5.50;4.00;;;21.50;67.60;;;;;;215092;1281;22480;-52
2022/10/07 03:49:49;;;;;;;7.30;4.40;;;21.50;67.60;;;;;;215244;1291;22474;-49
2022/10/07 03:54:55;;;;;;;5.90;3.80;;;21.40;67.60;;;;;;215103;1282;22475;-51
2022/10/07 04:00:01;;;;;;;5.50;3.80;;;21.40;67.60;;;;;;214797;1282;22514;-53
2022/10/07 04:05:06;;;;;;;6.40;3.70;;;21.50;67.90;;;;;;214862;1281;23173;-50
2022/10/07 04:10:12;;;;;;;9.80;4.40;;;21.40;67.60;;;;;;214878;1281;22432;-49
2022/10/07 04:15:16;;;;;;;5.80;3.60;;;21.40;67.90;;;;;;214727;1301;25209;-50
2022/10/07 04:20:20;;;;;;;5.60;4.00;;;21.40;67.50;;;;;;215040;1282;22472;-48
2022/10/07 04:25:33;;;;;;;7.80;4.20;;;21.50;67.90;;;;;;214869;1291;22848;-48
2022/10/07 04:30:42;;;;;;;5.10;3.80;;;21.40;67.40;;;;;;214905;1283;22474;-51
2022/10/07 04:35:48;;;;;;;8.60;4.20;;;21.40;67.50;;;;;;215164;1275;22470;-48
2022/10/07 04:40:53;;;;;;;9.60;4.50;;;21.40;67.50;;;;;;214870;1303;25358;-51
2022/10/07 04:46:05;;;;;;;6.90;4.00;;;21.50;67.50;;;;;;215138;1281;22470;-48
2022/10/07 04:51:11;;;;;;;6.10;4.30;;;21.50;66.90;;;;;;214904;1285;24232;-48
2022/10/07 04:56:18;;;;;;;8.60;4.50;;;21.40;67.30;;;;;;214698;1300;24240;-49
2022/10/07 05:01:22;;;;;;;5.60;3.80;;;21.40;67.40;;;;;;215124;1285;22464;-53
2022/10/07 05:06:26;;;;;;;8.30;3.90;;;21.40;67.50;;;;;;215062;1285;22466;-50
2022/10/07 05:11:30;;;;;;;5.70;4.00;;;21.40;67.80;;;;;;214977;1303;25363;-50
2022/10/07 05:16:40;;;;;;;7.50;4.10;;;21.40;67.30;;;;;;214933;1302;22466;-48
2022/10/07 05:21:46;;;;;;;7.40;3.90;;;21.40;67.20;;;;;;214978;1282;25687;-54
2022/10/07 05:26:51;;;;;;;7.30;4.10;;;21.40;67.40;;;;;;214940;1294;24234;-49
2022/10/07 05:31:54;;;;;;;4.90;3.40;;;21.40;67.30;;;;;;215067;1295;23842;-51
2022/10/07 05:37:03;;;;;;;8.70;4.30;;;21.40;67.30;;;;;;214863;1284;22506;-54
2022/10/07 05:42:08;;;;;;;6.70;3.70;;;21.40;67.80;;;;;;214751;1282;23120;-51
2022/10/07 05:47:17;;;;;;;6.20;3.80;;;21.40;67.60;;;;;;214952;1283;22469;-49
2022/10/07 05:52:22;;;;;;;8.30;4.10;;;21.50;67.20;;;;;;214956;1282;22465;-48
2022/10/07 05:57:48;;;;;;;6.80;3.50;;;21.50;67.50;;;;;;214929;1290;24308;-50
2022/10/07 06:02:52;;;;;;;7.80;4.10;;;21.50;68.00;;;;;;214854;1290;24210;-49
2022/10/07 06:07:55;;;;;;;8.00;3.90;;;21.60;67.80;;;;;;214339;1296;372619;-49
2022/10/07 06:13:09;;;;;;;11.30;5.40;;;21.80;67.40;;;;;;215029;1281;22628;-50
2022/10/07 06:18:14;;;;;;;13.90;4.90;;;21.90;67.80;;;;;;214802;1284;23922;-49
2022/10/07 06:23:24;;;;;;;7.50;3.40;;;22.00;66.90;;;;;;214864;1279;25372;-51
2022/10/07 06:28:36;;;;;;;6.10;3.60;;;22.20;66.60;;;;;;214921;1285;22472;-49
2022/10/07 06:33:42;;;;;;;15.00;4.40;;;22.30;66.30;;;;;;214971;1285;25497;-50
2022/10/07 06:38:48;;;;;;;15.60;4.60;;;22.30;66.00;;;;;;215004;1279;22468;-49
2022/10/07 06:43:57;;;;;;;7.40;4.30;;;22.30;66.30;;;;;;214788;1303;25416;-51
2022/10/07 06:49:03;;;;;;;11.50;4.60;;;22.20;66.30;;;;;;214985;1288;24245;-52
2022/10/07 06:54:07;;;;;;;10.00;4.00;;;22.10;66.30;;;;;;214901;1301;25367;-49
2022/10/07 06:59:11;;;;;;;11.40;4.30;;;22.10;66.50;;;;;;215008;1285;25325;-50
2022/10/07 07:04:47;;;;;;;10.20;4.60;;;22.00;66.50;;;;;;214862;1287;22579;-53
2022/10/07 07:09:50;;;;;;;9.80;4.30;;;22.00;66.40;;;;;;214992;1281;24209;-49
2022/10/07 07:14:55;;;;;;;8.60;4.00;;;22.00;66.40;;;;;;214970;1294;24006;-50
2022/10/07 07:19:58;;;;;;;8.60;4.50;;;22.00;66.30;;;;;;214918;1278;22480;-50
2022/10/07 07:25:04;;;;;;;10.20;4.40;;;22.00;66.40;;;;;;214759;1282;23180;-50
2022/10/07 07:30:09;;;;;;;7.90;3.80;;;21.90;67.30;;;;;;214856;1292;22562;-51
2022/10/07 07:35:13;;;;;;;12.50;4.00;;;21.80;67.50;;;;;;214860;1283;24449;-51
2022/10/07 07:40:18;;;;;;;7.40;3.80;;;21.90;67.90;;;;;;214951;1286;25355;-57
2022/10/07 07:45:23;;;;;;;6.20;3.90;;;21.80;67.80;;;;;;215084;1275;22458;-54
2022/10/07 07:50:27;;;;;;;6.70;3.30;;;21.90;68.30;;;;;;215053;1291;22581;-49
2022/10/07 07:55:32;;;;;;;10.50;4.50;;;21.80;68.50;;;;;;215198;1281;23262;-53
2022/10/07 08:00:36;;;;;;;8.20;3.70;;;21.90;68.20;;;;;;214925;1291;22465;-52
2022/10/07 08:05:42;;;;;;;10.10;4.10;;;21.90;68.60;;;;;;215178;1300;22590;-49
2022/10/07 08:10:46;;;;;;;9.10;3.70;;;21.90;68.30;;;;;;215047;1289;25298;-54
2022/10/07 08:15:55;;;;;;;8.30;3.20;;;21.90;68.40;;;;;;214748;1291;24227;-54
2022/10/07 08:21:04;;;;;;;6.50;3.70;;;21.90;68.20;;;;;;214993;1301;22479;-55
2022/10/07 08:26:09;;;;;;;7.30;3.30;;;22.00;68.30;;;;;;215033;1301;25893;-54
2022/10/07 08:31:16;;;;;;;5.60;3.60;;;22.00;68.20;;;;;;214900;1281;24231;-53
2022/10/07 08:36:25;;;;;;;8.40;3.50;;;22.00;68.10;;;;;;214940;1281;24314;-54
2022/10/07 08:41:39;;;;;;;14.70;4.50;;;22.20;67.50;;;;;;214889;1287;22463;-55
2022/10/07 08:47:21;;;;;;;10.30;3.90;;;22.10;67.80;;;;;;214249;1302;24189;-55
2022/10/07 08:52:38;;;;;;;4.60;3.30;;;22.20;67.40;;;;;;214700;1298;25298;-55
2022/10/07 08:57:48;;;;;;;8.70;3.60;;;22.20;67.30;;;;;;214712;1278;22647;-53
2022/10/07 09:03:08;;;;;;;7.70;3.80;;;22.30;67.00;;;;;;215746;1280;22472;-52
2022/10/07 09:08:20;;;;;;;7.00;3.50;;;22.20;67.00;;;;;;214791;1295;22520;-55
2022/10/07 09:13:29;;;;;;;9.70;3.80;;;22.30;67.20;;;;;;214715;1287;22476;-55
2022/10/07 09:18:42;;;;;;;49.10;33.10;;;22.30;67.00;;;;;;214857;1295;24312;-57
2022/10/07 09:23:54;;;;;;;10.40;5.90;;;22.30;67.10;;;;;;215129;1285;24363;-54
2022/10/07 09:29:09;;;;;;;13.10;7.30;;;22.30;66.90;;;;;;214655;1281;23802;-54
2022/10/07 09:34:28;;;;;;;15.20;8.80;;;22.40;66.60;;;;;;214854;1288;22508;-55
2022/10/07 09:39:32;;;;;;;13.70;8.50;;;22.40;66.60;;;;;;214789;1294;22465;-55
2022/10/07 09:44:38;;;;;;;13.30;8.10;;;22.50;66.50;;;;;;214475;1288;24606;-56
2022/10/07 09:49:47;;;;;;;20.70;8.60;;;22.50;66.40;;;;;;214995;1291;22528;-55
2022/10/07 09:54:53;;;;;;;12.10;7.00;;;22.50;66.80;;;;;;215675;1284;22958;-56
2022/10/07 10:00:12;;;;;;;13.90;7.60;;;22.50;66.70;;;;;;215086;1282;22564;-57
2022/10/07 10:05:34;;;;;;;16.80;7.90;;;22.60;66.80;;;;;;214836;1285;24289;-56
2022/10/07 10:10:54;;;;;;;14.30;7.40;;;22.60;66.70;;;;;;214740;1285;24231;-54
2022/10/07 10:16:02;;;;;;;17.80;6.90;;;22.70;66.50;;;;;;214861;1302;25381;-54
2022/10/07 10:21:39;;;;;;;12.90;6.80;;;22.80;66.50;;;;;;215052;1281;24213;-54
2022/10/07 10:27:15;;;;;;;10.80;6.10;;;22.80;66.50;;;;;;214648;1293;24419;-54
2022/10/07 10:32:21;;;;;;;10.30;6.10;;;22.90;65.70;;;;;;215143;1288;22469;-56
2022/10/07 10:37:40;;;;;;;11.70;5.60;;;22.90;63.70;;;;;;214872;1283;22585;-54
2022/10/07 10:42:55;;;;;;;14.40;5.50;;;22.90;62.50;;;;;;215234;1280;24262;-52
2022/10/07 10:48:17;;;;;;;18.00;6.60;;;22.80;61.50;;;;;;215178;1287;22470;-54
2022/10/07 10:54:00;;;;;;;14.80;6.10;;;22.80;62.70;;;;;;215211;1282;24375;-55
2022/10/07 10:59:21;;;;;;;10.40;4.90;;;22.70;61.50;;;;;;215214;1294;22815;-52
2022/10/07 11:04:30;;;;;;;9.40;5.00;;;22.80;61.40;;;;;;215117;1295;24065;-50
2022/10/07 11:10:18;;;;;;;10.60;5.00;;;22.70;60.40;;;;;;215202;1281;22512;-57
2022/10/07 11:15:26;;;;;;;9.70;4.40;;;22.80;61.10;;;;;;214508;1300;22715;-51
2022/10/07 11:20:34;;;;;;;12.00;4.30;;;22.80;61.20;;;;;;215174;1284;24295;-53
2022/10/07 11:25:45;;;;;;;9.00;4.30;;;22.90;61.70;;;;;;214978;1298;22635;-54
2022/10/07 11:31:23;;;;;;;8.40;4.40;;;22.90;61.80;;;;;;215040;1288;22466;-54
2022/10/07 11:36:42;;;;;;;9.40;4.60;;;23.00;62.40;;;;;;215077;1297;25574;-50
2022/10/07 11:41:52;;;;;;;13.60;4.60;;;23.00;62.30;;;;;;215154;1299;22525;-54
2022/10/07 11:47:00;;;;;;;10.20;4.60;;;23.00;62.50;;;;;;215119;1287;24208;-53
2022/10/07 11:52:17;;;;;;;7.20;4.50;;;23.00;62.30;;;;;;215216;1288;22486;-53
2022/10/07 11:57:26;;;;;;;8.70;4.20;;;23.10;62.70;;;;;;215285;1294;22614;-49
2022/10/07 12:02:39;;;;;;;11.10;5.00;;;23.10;62.30;;;;;;215181;1289;22472;-53
2022/10/07 12:07:43;;;;;;;7.30;4.00;;;23.20;62.50;;;;;;215054;1296;22708;-54
2022/10/07 12:12:53;;;;;;;7.40;4.00;;;23.30;62.40;;;;;;215090;1301;25425;-55
2022/10/07 12:18:03;;;;;;;6.20;4.00;;;23.20;62.40;;;;;;215156;1302;24231;-52
2022/10/07 12:23:24;;;;;;;5.80;3.40;;;23.30;62.60;;;;;;215151;1288;22473;-54
2022/10/07 12:28:46;;;;;;;6.10;3.70;;;23.30;62.30;;;;;;215141;1284;22585;-54
2022/10/07 12:34:03;;;;;;;9.60;4.20;;;23.30;62.90;;;;;;215003;1292;22469;-52
2022/10/07 12:39:08;;;;;;;7.60;4.00;;;23.30;62.60;;;;;;214972;1295;24226;-55
2022/10/07 12:44:38;;;;;;;8.90;4.00;;;23.40;62.60;;;;;;215051;1281;24117;-51
2022/10/07 12:49:48;;;;;;;7.80;4.00;;;23.40;62.30;;;;;;215019;1289;22474;-54
2022/10/07 12:54:56;;;;;;;7.40;3.70;;;23.40;63.20;;;;;;214511;1301;25304;-52
2022/10/07 13:00:15;;;;;;;6.10;3.60;;;23.40;62.80;;;;;;215106;1289;22523;-54
2022/10/07 13:05:44;;;;;;;7.30;3.10;;;23.40;63.20;;;;;;215060;1303;22468;-57
2022/10/07 13:11:26;;;;;;;7.50;3.70;;;23.40;62.70;;;;;;215089;1297;22461;-54
2022/10/07 13:16:59;;;;;;;8.00;3.60;;;23.40;62.80;;;;;;214941;1280;22507;-53
2022/10/07 13:22:17;;;;;;;9.20;4.50;;;23.40;62.70;;;;;;214963;1300;22503;-53
2022/10/07 13:27:27;;;;;;;8.00;4.20;;;23.50;62.40;;;;;;215014;1300;26714;-50
2022/10/07 13:32:33;;;;;;;9.60;3.90;;;23.40;62.60;;;;;;215096;1300;25395;-56
2022/10/07 13:37:37;;;;;;;4.80;3.00;;;23.40;62.80;;;;;;215256;1287;23363;-52
2022/10/07 13:42:41;;;;;;;4.30;3.00;;;23.50;62.70;;;;;;215162;1286;23049;-53
2022/10/07 13:47:48;;;;;;;6.40;3.90;;;23.50;63.10;;;;;;215163;1298;22769;-57
2022/10/07 13:52:54;;;;;;;7.30;3.80;;;23.50;62.50;;;;;;215288;1286;22709;-52
2022/10/07 13:58:03;;;;;;;7.40;3.60;;;23.50;62.70;;;;;;215114;1287;22537;-54
2022/10/07 14:03:16;;;;;;;8.30;3.90;;;23.50;63.00;;;;;;215127;1288;24245;-53
2022/10/07 14:08:23;;;;;;;6.40;3.40;;;23.50;62.80;;;;;;215126;1284;23039;-53
2022/10/07 14:13:36;;;;;;;5.10;3.40;;;23.40;63.10;;;;;;215058;1286;23720;-56
2022/10/07 14:18:46;;;;;;;6.90;3.30;;;23.40;62.90;;;;;;215094;1287;22485;-53
2022/10/07 14:23:49;;;;;;;11.80;4.00;;;23.40;63.00;;;;;;214754;1288;22509;-62
2022/10/07 14:28:53;;;;;;;10.70;4.00;;;23.40;63.10;;;;;;215022;1286;22741;-55
2022/10/07 14:40:24;;;;;;;11.60;4.70;;;23.40;67.50;;;;;;214884;1280;22556;-53
2022/10/07 14:45:37;;;;;;;10.70;4.90;;;23.40;66.20;;;;;;215055;1288;24221;-52
2022/10/07 14:50:54;;;;;;;13.70;5.10;;;23.30;66.30;;;;;;215099;1296;25299;-54
2022/10/07 14:56:14;;;;;;;14.90;4.90;;;23.30;67.40;;;;;;214873;1304;22496;-54
2022/10/07 15:01:44;;;;;;;13.40;4.80;;;23.30;67.90;;;;;;214831;1301;23010;-52
2022/10/07 15:07:01;;;;;;;11.00;4.40;;;23.30;68.40;;;;;;214980;1291;22529;-53
2022/10/07 15:12:26;;;;;;;11.30;4.70;;;23.30;68.50;;;;;;215038;1294;23662;-51
2022/10/07 15:17:41;;;;;;;8.40;3.90;;;23.30;69.40;;;;;;214661;1301;25469;-51
2022/10/07 15:23:12;;;;;;;12.20;4.60;;;23.20;69.60;;;;;;215051;1296;23723;-54
2022/10/07 15:28:28;;;;;;;9.20;4.70;;;23.20;69.50;;;;;;215123;1301;25438;-52
2022/10/07 15:33:34;;;;;;;11.00;4.10;;;23.20;69.40;;;;;;215175;1278;24265;-50
2022/10/07 15:38:41;;;;;;;8.00;3.70;;;23.20;69.30;;;;;;215039;1301;25515;-51
2022/10/07 15:43:44;;;;;;;8.00;3.60;;;23.20;69.80;;;;;;214977;1287;22504;-51
2022/10/07 15:48:48;;;;;;;12.40;4.80;;;23.20;69.60;;;;;;214639;1295;25106;-50
2022/10/07 15:53:54;;;;;;;11.90;5.60;;;23.20;70.60;;;;;;214658;1295;25588;-52
2022/10/07 15:59:00;;;;;;;16.00;7.20;;;23.30;69.70;;;;;;214900;1290;24356;-53
2022/10/07 16:04:12;;;;;;;35.60;15.80;;;23.20;69.60;;;;;;214745;1281;24240;-47
2022/10/07 16:09:22;;;;;;;42.50;18.00;;;23.20;69.70;;;;;;215010;1289;22548;-53
2022/10/07 16:14:34;;;;;;;33.70;13.00;;;23.20;69.60;;;;;;214939;1285;23107;-49
2022/10/07 16:19:43;;;;;;;28.80;11.50;;;23.20;69.40;;;;;;214993;1289;22565;-51
2022/10/07 16:24:50;;;;;;;27.60;11.30;;;23.20;68.80;;;;;;214926;1281;22480;-50
2022/10/07 16:35:29;;;;;;;30.80;10.50;;;23.10;68.60;;;;;;214872;1291;22467;-51
2022/10/07 16:40:39;;;;;;;25.50;9.50;;;23.00;68.50;;;;;;214759;1301;23014;-50
2022/10/07 16:45:43;;;;;;;26.20;9.00;;;23.00;68.60;;;;;;215681;1293;25742;-51
2022/10/07 16:50:56;;;;;;;25.30;7.60;;;23.00;68.10;;;;;;214820;1279;23013;-51
2022/10/07 16:56:03;;;;;;;20.80;8.70;;;23.00;69.10;;;;;;215023;1298;23669;-51
2022/10/07 17:01:26;;;;;;;22.50;7.70;;;23.10;69.90;;;;;;214963;1295;24310;-52
2022/10/07 17:06:31;;;;;;;27.40;7.60;;;23.10;69.40;;;;;;215012;1288;24243;-54
2022/10/07 17:11:36;;;;;;;25.10;9.50;;;23.00;69.00;;;;;;215036;1300;24309;-51
2022/10/07 17:16:42;;;;;;;23.60;9.10;;;23.00;69.70;;;;;;214960;1286;22499;-53
2022/10/07 17:21:47;;;;;;;26.80;8.20;;;23.00;69.20;;;;;;214931;1298;23890;-49
2022/10/07 17:26:52;;;;;;;25.30;9.50;;;23.00;68.70;;;;;;214976;1285;24231;-49
2022/10/07 17:32:06;;;;;;;31.70;10.80;;;23.00;69.20;;;;;;214924;1281;22508;-48
2022/10/07 17:37:19;;;;;;;24.70;9.70;;;23.10;69.50;;;;;;215081;1288;24497;-48
2022/10/07 17:42:35;;;;;;;25.00;8.40;;;23.00;69.60;;;;;;215172;1288;24216;-49
2022/10/07 17:47:44;;;;;;;26.90;9.20;;;23.00;69.40;;;;;;215142;1291;23873;-46
2022/10/07 17:52:51;;;;;;;24.50;9.40;;;23.00;69.40;;;;;;215052;1293;24248;-53
2022/10/07 17:58:02;;;;;;;19.00;8.00;;;22.90;69.40;;;;;;215170;1300;22715;-48
2022/10/07 18:03:08;;;;;;;19.80;8.40;;;22.90;69.40;;;;;;215201;1300;25329;-47
2022/10/07 18:08:31;;;;;;;18.70;7.60;;;22.80;69.20;;;;;;214293;1299;1256729;-47
2022/10/07 18:19:48;;;;;;;21.40;8.80;;;22.70;69.20;;;;;;215172;1301;22471;-48
2022/10/07 18:24:57;;;;;;;18.70;8.40;;;22.70;69.20;;;;;;215196;1294;22459;-46
2022/10/07 18:30:12;;;;;;;18.40;7.90;;;22.70;69.20;;;;;;215052;1285;22710;-54
2022/10/07 18:35:29;;;;;;;18.00;7.80;;;22.70;69.20;;;;;;215085;1298;24351;-52
2022/10/07 18:41:01;;;;;;;17.20;7.90;;;22.60;69.20;;;;;;215344;1275;24340;-50
2022/10/07 18:46:39;;;;;;;15.60;7.50;;;22.60;69.20;;;;;;215119;1295;22728;-51
2022/10/07 18:51:57;;;;;;;16.60;7.70;;;22.60;69.10;;;;;;215038;1294;23300;-51
2022/10/07 18:57:01;;;;;;;14.70;7.70;;;22.60;69.10;;;;;;215271;1281;22853;-48
2022/10/07 19:02:49;;;;;;;;;;;;;;;;;;;;;
2022/10/07 19:08:08;;;;;;;14.30;7.10;;;22.60;69.00;;;;;;215206;1281;23792;-51
2022/10/07 19:19:25;;;;;;;20.00;7.70;;;22.50;69.00;;;;;;215256;1282;23727;-51
2022/10/07 19:30:05;;;;;;;15.20;7.30;;;22.50;68.80;;;;;;215175;1278;24241;-48
2022/10/07 19:35:09;;;;;;;17.20;7.50;;;22.50;68.90;;;;;;215256;1290;22512;-49
2022/10/07 19:40:13;;;;;;;13.50;6.40;;;22.40;69.20;;;;;;215220;1290;23843;-48
2022/10/07 19:45:17;;;;;;;16.70;7.30;;;22.40;68.70;;;;;;215167;1285;22475;-47
2022/10/07 19:50:22;;;;;;;14.60;7.10;;;22.40;69.10;;;;;;215198;1282;22535;-52
2022/10/07 19:55:31;;;;;;;13.50;6.90;;;22.40;69.20;;;;;;215291;1294;25396;-50
2022/10/07 20:00:38;;;;;;;12.30;6.50;;;22.40;68.70;;;;;;215076;1284;22754;-52
2022/10/07 20:05:43;;;;;;;12.20;6.60;;;22.40;68.70;;;;;;215086;1297;25499;-50
2022/10/07 20:10:49;;;;;;;12.80;6.60;;;22.40;68.70;;;;;;214936;1290;22507;-50
2022/10/07 20:16:07;;;;;;;12.80;6.80;;;22.30;69.00;;;;;;215072;1291;24241;-51
2022/10/07 20:21:19;;;;;;;14.70;7.00;;;22.30;68.60;;;;;;215089;1273;24251;-50
2022/10/07 20:26:30;;;;;;;17.90;7.60;;;22.30;68.50;;;;;;215333;1281;24333;-48
2022/10/07 20:31:43;;;;;;;13.40;7.10;;;22.30;68.40;;;;;;215130;1297;23878;-50
2022/10/07 20:36:53;;;;;;;11.80;6.50;;;22.20;68.20;;;;;;215080;1292;24049;-49
2022/10/07 20:42:23;;;;;;;14.70;7.40;;;22.20;68.10;;;;;;215196;1291;22500;-48
2022/10/07 20:47:33;;;;;;;9.40;7.20;;;22.20;68.40;;;;;;215216;1272;22465;-48
2022/10/07 20:52:45;;;;;;;12.40;7.10;;;22.20;68.00;;;;;;215060;1301;25532;-50
2022/10/07 20:57:58;;;;;;;10.50;6.90;;;22.20;67.80;;;;;;215025;1300;22515;-52
2022/10/07 21:03:02;;;;;;;13.40;7.10;;;22.20;67.80;;;;;;215040;1300;26571;-52
2022/10/07 21:08:13;;;;;;;13.00;7.50;;;22.10;67.70;;;;;;214985;1283;22600;-51
2022/10/07 21:13:18;;;;;;;10.70;6.40;;;22.10;68.10;;;;;;215377;1292;22481;-48
2022/10/07 21:18:25;;;;;;;11.00;6.80;;;22.10;67.70;;;;;;215229;1299;22463;-49
2022/10/07 21:23:29;;;;;;;11.60;6.80;;;22.10;67.70;;;;;;215248;1275;22478;-51
2022/10/07 21:28:36;;;;;;;11.50;7.00;;;22.10;67.60;;;;;;215250;1301;26521;-46
2022/10/07 21:33:40;;;;;;;11.20;6.50;;;22.00;67.50;;;;;;215311;1282;24430;-52
2022/10/07 21:38:46;;;;;;;15.20;7.70;;;22.00;67.50;;;;;;214974;1287;22621;-56
2022/10/07 21:43:54;;;;;;;15.40;7.70;;;22.00;67.50;;;;;;215258;1281;22470;-50
2022/10/07 21:48:58;;;;;;;10.20;6.60;;;22.00;67.80;;;;;;215301;1281;22478;-47
2022/10/07 21:54:02;;;;;;;11.50;6.90;;;22.00;67.80;;;;;;215182;1284;22975;-51
2022/10/07 21:59:06;;;;;;;12.10;6.60;;;22.00;67.40;;;;;;215316;1291;22487;-49
2022/10/07 22:04:15;;;;;;;10.30;6.30;;;21.90;67.70;;;;;;215153;1287;23837;-50
2022/10/07 22:09:20;;;;;;;9.50;7.00;;;22.00;67.30;;;;;;215271;1275;22460;-50
2022/10/07 22:14:23;;;;;;;10.60;6.60;;;21.90;67.30;;;;;;215129;1281;22469;-52
2022/10/07 22:19:29;;;;;;;14.60;6.50;;;21.90;67.80;;;;;;215022;1291;22463;-51
2022/10/07 22:24:33;;;;;;;12.30;6.70;;;21.90;67.10;;;;;;215127;1273;22588;-49
2022/10/07 22:29:37;;;;;;;11.10;6.00;;;21.90;67.00;;;;;;215173;1284;22477;-49
2022/10/07 22:40:03;;;;;;;10.30;6.30;;;21.90;67.40;;;;;;215303;1281;23460;-50
2022/10/07 22:45:07;;;;;;;10.30;6.50;;;21.90;66.90;;;;;;215226;1294;22502;-47
2022/10/07 22:50:11;;;;;;;8.60;5.50;;;21.90;67.40;;;;;;215296;1282;22845;-47
2022/10/07 22:55:16;;;;;;;8.00;5.80;;;21.80;66.90;;;;;;215244;1282;25531;-47
2022/10/07 23:00:21;;;;;;;9.10;5.70;;;21.80;66.80;;;;;;215114;1282;25606;-48
2022/10/07 23:05:25;;;;;;;8.90;5.70;;;21.90;66.90;;;;;;215149;1284;23228;-52
2022/10/07 23:10:33;;;;;;;10.80;6.40;;;21.80;67.20;;;;;;215232;1292;23839;-48
2022/10/07 23:15:37;;;;;;;12.90;6.30;;;21.80;66.80;;;;;;215232;1281;22542;-47
2022/10/07 23:20:41;;;;;;;11.20;5.60;;;21.80;67.20;;;;;;215124;1284;22475;-47
2022/10/07 23:25:44;;;;;;;17.10;6.30;;;21.80;66.60;;;;;;215117;1299;25373;-51
2022/10/07 23:30:56;;;;;;;7.60;5.20;;;21.80;66.80;;;;;;215156;1287;23349;-47
2022/10/07 23:36:02;;;;;;;9.50;5.50;;;21.80;66.60;;;;;;215206;1282;22469;-51
2022/10/07 23:41:07;;;;;;;9.40;5.30;;;21.90;67.00;;;;;;215015;1282;22461;-48
2022/10/07 23:46:13;;;;;;;11.90;5.60;;;21.80;67.20;;;;;;215114;1291;25481;-48
2022/10/07 23:51:24;;;;;;;21.10;6.70;;;21.80;67.90;;;;;;215082;1282;24231;-45
2022/10/07 23:56:34;;;;;;;10.50;5.90;;;21.90;68.70;;;;;;214849;1298;25364;-48
